createdAt,value
2023-05-09T00:00:58.908Z,12.55
2023-05-09T00:05:17.495Z,13.87
2023-05-09T00:09:36.245Z,11.82
2023-05-09T00:13:56.001Z,12.50
2023-05-09T00:18:14.427Z,12.43
2023-05-09T00:22:32.325Z,11.15
2023-05-09T00:26:51.700Z,12.55
2023-05-09T00:31:11.252Z,11.97
2023-05-09T00:35:29.247Z,13.15
2023-05-09T00:39:47.434Z,15.82
2023-05-09T00:44:07.214Z,12.45
2023-05-09T00:48:26.819Z,13.43
2023-05-09T00:52:44.574Z,12.20
2023-05-09T00:57:03.323Z,13.02
2023-05-09T01:01:22.515Z,13.50
2023-05-09T01:05:47.690Z,12.80
2023-05-09T01:10:12.807Z,12.18
2023-05-09T01:14:39.084Z,15.57
2023-05-09T01:19:07.231Z,14.25
2023-05-09T01:23:59.968Z,15.52
2023-05-09T01:28:35.658Z,13.43
2023-05-09T01:33:00.809Z,12.47
2023-05-09T01:37:25.077Z,13.90
2023-05-09T01:41:44.578Z,12.07
2023-05-09T01:46:06.294Z,16.30
2023-05-09T01:50:26.153Z,12.38
2023-05-09T01:54:46.653Z,12.25
2023-05-09T01:59:07.948Z,10.57
2023-05-09T02:03:27.642Z,10.68
2023-05-09T02:07:47.863Z,10.70
2023-05-09T02:12:06.885Z,10.52
2023-05-09T02:16:24.425Z,10.50
2023-05-09T02:20:42.529Z,11.30
2023-05-09T02:25:03.580Z,11.52
2023-05-09T02:29:30.025Z,12.00
2023-05-09T02:33:49.654Z,10.25
2023-05-09T02:38:07.698Z,11.52
2023-05-09T02:42:30.281Z,12.00
2023-05-09T02:46:49.249Z,14.90
2023-05-09T02:51:07.416Z,13.00
2023-05-09T02:55:25.570Z,10.40
2023-05-09T02:59:44.886Z,10.17
2023-05-09T03:04:04.799Z,6.57
2023-05-09T03:08:22.643Z,12.85
2023-05-09T03:12:43.822Z,10.77
2023-05-09T03:17:06.216Z,13.43
2023-05-09T03:21:26.367Z,10.35
2023-05-09T03:25:44.064Z,11.47
2023-05-09T03:30:02.304Z,13.50
2023-05-09T03:34:21.529Z,12.98
2023-05-09T03:38:41.706Z,10.57
2023-05-09T03:42:59.534Z,13.30
2023-05-09T03:47:17.595Z,12.75
2023-05-09T03:51:36.797Z,15.45
2023-05-09T03:55:59.607Z,10.37
2023-05-09T04:00:22.050Z,10.63
2023-05-09T04:04:51.130Z,9.43
2023-05-09T04:09:14.688Z,12.53
2023-05-09T04:13:33.530Z,10.45
2023-05-09T04:17:54.591Z,9.50
2023-05-09T04:22:12.726Z,9.13
2023-05-09T04:26:32.344Z,9.43
2023-05-09T04:30:52.212Z,8.95
2023-05-09T04:35:13.457Z,9.45
2023-05-09T04:39:33.882Z,8.97
2023-05-09T04:44:03.345Z,10.82
2023-05-09T04:48:22.314Z,8.18
2023-05-09T04:52:41.119Z,29.67
2023-05-09T04:57:09.934Z,13.27
2023-05-09T05:01:33.561Z,10.07
2023-05-09T05:05:53.145Z,8.93
2023-05-09T05:10:11.742Z,8.40
2023-05-09T05:14:32.359Z,9.52
2023-05-09T05:18:51.919Z,7.70
2023-05-09T05:23:11.937Z,8.93
2023-05-09T05:27:29.426Z,9.07
2023-05-09T05:31:47.811Z,10.80
2023-05-09T05:36:07.832Z,8.37
2023-05-09T05:40:26.721Z,8.50
2023-05-09T05:44:47.903Z,9.57
2023-05-09T05:49:06.224Z,10.77
2023-05-09T05:53:29.831Z,8.43
2023-05-09T05:57:48.690Z,7.18
2023-05-09T06:02:09.345Z,7.80
2023-05-09T06:06:31.097Z,7.20
2023-05-09T06:10:49.786Z,5.93
2023-05-09T06:15:10.375Z,8.80
2023-05-09T06:19:34.109Z,7.90
2023-05-09T06:24:07.874Z,9.52
2023-05-09T06:28:30.166Z,9.40
2023-05-09T06:32:49.801Z,7.97
2023-05-09T06:37:07.544Z,8.10
2023-05-09T06:41:26.075Z,7.13
2023-05-09T06:45:45.434Z,7.30
2023-05-09T06:50:05.209Z,7.30
2023-05-09T06:54:22.770Z,7.97
2023-05-09T06:58:41.197Z,7.50
2023-05-09T07:03:01.164Z,7.17
2023-05-09T07:07:20.408Z,7.65
2023-05-09T07:11:38.287Z,7.93
2023-05-09T07:15:56.391Z,7.95
2023-05-09T07:20:15.756Z,7.80
2023-05-09T07:24:35.558Z,7.55
2023-05-09T07:28:53.696Z,8.52
2023-05-09T07:33:11.616Z,7.73
2023-05-09T07:37:31.186Z,8.07
2023-05-09T07:41:50.599Z,6.78
2023-05-09T07:46:09.025Z,6.63
2023-05-09T07:50:26.883Z,7.68
2023-05-09T07:54:46.553Z,11.88
2023-05-09T07:59:06.404Z,8.20
2023-05-09T08:03:24.197Z,8.43
2023-05-09T08:07:42.131Z,8.18
2023-05-09T08:12:01.518Z,6.95
2023-05-09T08:16:21.476Z,8.73
2023-05-09T08:20:39.298Z,7.05
2023-05-09T08:24:57.442Z,8.15
2023-05-09T08:29:17.733Z,6.97
2023-05-09T08:33:36.581Z,8.07
2023-05-09T08:37:54.640Z,9.75
2023-05-09T08:42:15.899Z,7.30
2023-05-09T08:46:38.410Z,6.87
2023-05-09T08:50:58.829Z,6.93
2023-05-09T08:55:16.604Z,8.05
2023-05-09T08:59:36.910Z,7.93
2023-05-09T09:03:57.765Z,7.28
2023-05-09T09:08:17.090Z,7.72
2023-05-09T09:12:35.883Z,9.33
2023-05-09T09:16:58.436Z,7.15
2023-05-09T09:21:19.321Z,7.13
2023-05-09T09:25:37.847Z,6.40
2023-05-09T09:29:55.864Z,7.57
2023-05-09T09:34:15.400Z,7.97
2023-05-09T09:38:43.664Z,7.78
2023-05-09T09:43:02.459Z,5.53
2023-05-09T09:47:20.388Z,6.68
2023-05-09T09:51:39.213Z,7.38
2023-05-09T09:55:58.684Z,6.43
2023-05-09T10:00:19.849Z,6.57
2023-05-09T10:04:41.533Z,7.20
2023-05-09T10:09:00.027Z,6.28
2023-05-09T10:13:19.818Z,6.23
2023-05-09T10:17:39.453Z,6.60
2023-05-09T10:22:00.136Z,6.15
2023-05-09T10:26:23.480Z,7.37
2023-05-09T10:30:57.901Z,6.32
2023-05-09T10:35:18.527Z,6.70
2023-05-09T10:39:38.449Z,7.10
2023-05-09T10:43:59.786Z,7.00
2023-05-09T10:48:21.011Z,6.97
2023-05-09T10:53:14.465Z,7.95
2023-05-09T10:57:33.690Z,10.17
2023-05-09T11:02:01.084Z,7.95
2023-05-09T11:06:43.905Z,6.28
2023-05-09T11:11:08.336Z,8.23
2023-05-09T11:15:28.503Z,6.15
2023-05-09T11:20:05.616Z,9.65
2023-05-09T11:24:31.005Z,7.07
2023-05-09T11:28:55.036Z,6.75
2023-05-09T11:33:24.178Z,7.78
2023-05-09T11:37:48.560Z,8.48
2023-05-09T11:42:10.600Z,7.93
2023-05-09T11:46:29.457Z,6.90
2023-05-09T11:50:49.671Z,6.25
2023-05-09T11:55:11.555Z,6.50
2023-05-09T11:59:35.833Z,6.45
2023-05-09T12:03:54.376Z,7.63
2023-05-09T12:08:13.602Z,7.50
2023-05-09T12:12:35.615Z,7.50
2023-05-09T12:16:55.363Z,6.07
2023-05-09T12:21:16.006Z,7.65
2023-05-09T12:25:33.590Z,7.63
2023-05-09T12:29:53.051Z,7.47
2023-05-09T12:34:13.711Z,5.97
2023-05-09T12:38:33.734Z,8.43
2023-05-09T12:42:53.766Z,6.80
2023-05-09T12:47:15.953Z,6.57
2023-05-09T12:51:35.434Z,8.10
2023-05-09T12:56:02.661Z,7.53
2023-05-09T13:00:23.328Z,7.20
2023-05-09T13:04:40.484Z,6.45
2023-05-09T13:09:01.789Z,6.10
2023-05-09T13:13:20.154Z,6.95
2023-05-09T13:17:37.595Z,6.05
2023-05-09T13:21:56.734Z,7.50
2023-05-09T13:26:18.230Z,6.57
2023-05-09T13:30:38.343Z,5.57
2023-05-09T13:34:55.962Z,4.73
2023-05-09T13:39:14.161Z,8.00
2023-05-09T13:43:33.465Z,5.60
2023-05-09T13:47:53.237Z,6.10
2023-05-09T13:52:11.230Z,3.67
2023-05-09T13:56:29.465Z,4.80
2023-05-09T14:00:48.734Z,4.55
2023-05-09T14:05:09.355Z,6.80
2023-05-09T14:09:26.564Z,4.97
2023-05-09T14:13:47.699Z,4.50
2023-05-09T14:18:07.172Z,4.60
2023-05-09T14:22:26.895Z,4.30
2023-05-09T14:26:45.151Z,4.65
2023-05-09T14:31:06.436Z,5.22
2023-05-09T14:35:25.561Z,4.73
2023-05-09T14:39:46.900Z,5.35
2023-05-09T14:44:06.847Z,5.28
2023-05-09T14:48:24.564Z,3.13
2023-05-09T14:52:44.922Z,5.63
2023-05-09T14:57:05.367Z,5.78
2023-05-09T15:01:24.873Z,6.10
2023-05-09T15:05:43.547Z,4.05
2023-05-09T15:10:05.965Z,5.88
2023-05-09T15:14:25.911Z,4.65
2023-05-09T15:18:46.450Z,4.83
2023-05-09T15:23:06.692Z,4.65
2023-05-09T15:27:27.204Z,4.50
2023-05-09T15:31:46.615Z,6.07
2023-05-09T15:36:04.600Z,4.85
2023-05-09T15:40:22.596Z,3.63
2023-05-09T15:44:42.371Z,5.67
2023-05-09T15:49:01.938Z,4.45
2023-05-09T15:53:19.779Z,6.15
2023-05-09T15:57:37.818Z,5.13
2023-05-09T16:01:57.589Z,6.43
2023-05-09T16:06:18.057Z,5.32
2023-05-09T16:10:38.508Z,6.35
2023-05-09T16:14:56.515Z,5.70
2023-05-09T16:19:16.156Z,5.05
2023-05-09T16:23:39.453Z,5.03
2023-05-09T16:27:56.707Z,5.20
2023-05-09T16:32:14.646Z,5.25
2023-05-09T16:36:34.194Z,5.47
2023-05-09T16:40:54.022Z,5.80
2023-05-09T16:45:12.719Z,5.17
2023-05-09T16:49:34.367Z,5.90
2023-05-09T16:53:55.533Z,6.95
2023-05-09T16:58:15.846Z,7.33
2023-05-09T17:02:33.243Z,5.78
2023-05-09T17:06:51.883Z,6.07
2023-05-09T17:11:11.148Z,5.67
2023-05-09T17:15:30.820Z,6.70
2023-05-09T17:19:49.298Z,6.95
2023-05-09T17:24:07.284Z,7.00
2023-05-09T17:28:26.194Z,5.87
2023-05-09T17:32:45.895Z,7.30
2023-05-09T17:37:05.963Z,6.47
2023-05-09T17:41:24.997Z,6.13
2023-05-09T17:45:46.030Z,5.70
2023-05-09T17:50:04.415Z,7.82
2023-05-09T17:54:22.406Z,6.57
2023-05-09T17:58:40.553Z,7.30
2023-05-09T18:03:01.590Z,9.13
2023-05-09T18:07:19.617Z,7.35
2023-05-09T18:11:37.740Z,6.83
2023-05-09T18:15:59.698Z,8.13
2023-05-09T18:20:21.393Z,6.72
2023-05-09T18:24:40.985Z,8.33
2023-05-09T18:28:59.235Z,6.35
2023-05-09T18:33:17.100Z,6.10
2023-05-09T18:37:37.196Z,7.63
2023-05-09T18:41:56.171Z,7.43
2023-05-09T18:46:17.524Z,6.90
2023-05-09T18:50:37.777Z,7.30
2023-05-09T18:54:58.358Z,6.90
2023-05-09T18:59:17.907Z,7.80
2023-05-09T19:03:35.988Z,6.57
2023-05-09T19:07:54.506Z,7.30
2023-05-09T19:12:17.748Z,5.93
2023-05-09T19:16:36.545Z,8.20
2023-05-09T19:20:53.976Z,7.70
2023-05-09T19:25:12.108Z,6.53
2023-05-09T19:29:31.871Z,6.30
2023-05-09T19:33:51.692Z,6.63
2023-05-09T19:38:10.894Z,6.67
2023-05-09T19:42:30.460Z,7.65
2023-05-09T19:46:50.240Z,6.53
2023-05-09T19:51:12.351Z,7.70
2023-05-09T19:55:30.909Z,6.63
2023-05-09T19:59:49.364Z,7.43
2023-05-09T20:04:10.286Z,6.43
2023-05-09T20:08:28.464Z,7.53
2023-05-09T20:12:46.617Z,7.72
2023-05-09T20:17:05.424Z,6.70
2023-05-09T20:21:27.804Z,7.13
2023-05-09T20:25:46.399Z,6.68
2023-05-09T20:30:05.014Z,6.97
2023-05-09T20:34:31.762Z,9.57
2023-05-09T20:38:54.290Z,7.88
2023-05-09T20:43:14.192Z,8.73
2023-05-09T20:47:32.496Z,7.70
2023-05-09T20:51:50.233Z,7.65
2023-05-09T20:56:09.842Z,8.50
2023-05-09T21:00:29.565Z,9.20
2023-05-09T21:04:47.351Z,7.87
2023-05-09T21:09:06.326Z,8.77
2023-05-09T21:13:25.034Z,7.40
2023-05-09T21:17:47.409Z,6.97
2023-05-09T21:22:05.783Z,7.95
2023-05-09T21:26:24.057Z,7.28
2023-05-09T21:30:43.555Z,7.43
2023-05-09T21:35:03.906Z,7.90
2023-05-09T21:39:21.045Z,8.02
2023-05-09T21:43:39.178Z,7.80
2023-05-09T21:47:58.870Z,7.40
2023-05-09T21:52:18.525Z,7.95
2023-05-09T21:56:36.377Z,8.20
2023-05-09T22:00:54.620Z,7.20
2023-05-09T22:05:14.574Z,7.55
2023-05-09T22:09:34.220Z,8.05
2023-05-09T22:13:52.182Z,8.87
2023-05-09T22:18:09.862Z,7.18
2023-05-09T22:22:29.781Z,9.05
2023-05-09T22:26:48.928Z,8.68
2023-05-09T22:31:07.848Z,8.90
2023-05-09T22:35:25.577Z,7.55
2023-05-09T22:39:44.513Z,6.43
2023-05-09T22:44:04.192Z,9.07
2023-05-09T22:48:22.335Z,6.95
2023-05-09T22:52:40.600Z,7.43
2023-05-09T22:56:59.770Z,8.63
2023-05-09T23:01:19.681Z,7.70
2023-05-09T23:05:37.626Z,7.93
2023-05-09T23:09:55.870Z,9.00
2023-05-09T23:14:15.678Z,7.73
2023-05-09T23:18:34.951Z,7.10
2023-05-09T23:22:53.375Z,9.35
2023-05-09T23:27:11.021Z,6.63
2023-05-09T23:31:30.837Z,9.00
2023-05-09T23:35:50.217Z,7.38
2023-05-09T23:40:09.454Z,9.73
2023-05-09T23:44:30.138Z,8.13
2023-05-09T23:48:48.683Z,8.18
2023-05-09T23:53:08.684Z,8.70
2023-05-09T23:57:26.671Z,9.10
